createdAt,value
2024-01-16T00:01:03.867Z,-3.25
2024-01-16T00:03:45.543Z,-3.34
2024-01-16T00:06:14.626Z,-3.39
2024-01-16T00:08:43.002Z,-3.43
2024-01-16T00:11:11.349Z,-3.49
2024-01-16T00:13:39.505Z,-3.50
2024-01-16T00:16:07.681Z,-3.55
2024-01-16T00:18:38.952Z,-3.59
2024-01-16T00:21:06.981Z,-3.62
2024-01-16T00:23:34.990Z,-3.63
2024-01-16T00:26:03.114Z,-3.63
2024-01-16T00:28:35.266Z,-3.64
2024-01-16T00:31:09.600Z,-3.66
2024-01-16T00:33:37.834Z,-3.69
2024-01-16T00:36:06.367Z,-3.73
2024-01-16T00:38:35.350Z,-3.77
2024-01-16T00:41:03.492Z,-3.80
2024-01-16T00:43:32.404Z,-3.81
2024-01-16T00:46:00.604Z,-3.81
2024-01-16T00:48:28.764Z,-3.82
2024-01-16T00:50:57.151Z,-3.87
2024-01-16T00:53:25.247Z,-3.93
2024-01-16T00:55:55.316Z,-3.99
2024-01-16T00:58:23.574Z,-4.04
2024-01-16T01:00:51.800Z,-4.08
2024-01-16T01:03:19.851Z,-4.10
2024-01-16T01:05:48.075Z,-4.11
2024-01-16T01:08:16.215Z,-4.12
2024-01-16T01:10:44.426Z,-4.15
2024-01-16T01:13:12.613Z,-4.18
2024-01-16T01:15:40.720Z,-4.20
2024-01-16T01:18:08.928Z,-4.20
2024-01-16T01:20:37.195Z,-4.20
2024-01-16T01:23:05.425Z,-4.19
2024-01-16T01:25:33.460Z,-4.20
2024-01-16T01:28:01.528Z,-4.17
2024-01-16T01:30:29.625Z,-4.16
2024-01-16T01:32:57.999Z,-4.14
2024-01-16T01:35:26.464Z,-4.16
2024-01-16T01:37:54.476Z,-4.22
2024-01-16T01:40:22.640Z,-4.26
2024-01-16T01:42:50.748Z,-4.30
2024-01-16T01:45:18.739Z,-4.36
2024-01-16T01:47:47.266Z,-4.41
2024-01-16T01:50:15.858Z,-4.45
2024-01-16T01:52:45.327Z,-4.47
2024-01-16T01:55:15.420Z,-4.49
2024-01-16T01:57:44.448Z,-4.53
2024-01-16T02:00:13.608Z,-4.57
2024-01-16T02:02:43.744Z,-4.59
2024-01-16T02:05:12.288Z,-4.61
2024-01-16T02:07:40.647Z,-4.63
2024-01-16T02:10:09.036Z,-4.63
2024-01-16T02:12:37.137Z,-4.62
2024-01-16T02:15:06.225Z,-4.61
2024-01-16T02:17:34.410Z,-4.62
2024-01-16T02:20:02.453Z,-4.62
2024-01-16T02:22:34.585Z,-4.62
2024-01-16T02:25:02.727Z,-4.60
2024-01-16T02:27:30.701Z,-4.60
2024-01-16T02:29:58.732Z,-4.62
2024-01-16T02:32:26.844Z,-4.60
2024-01-16T02:34:54.922Z,-4.63
2024-01-16T02:37:24.296Z,-4.70
2024-01-16T02:39:52.372Z,-4.74
2024-01-16T02:42:20.428Z,-4.80
2024-01-16T02:44:48.541Z,-4.85
2024-01-16T02:47:16.610Z,-4.87
2024-01-16T02:49:44.690Z,-4.90
2024-01-16T02:52:12.702Z,-4.90
2024-01-16T02:54:40.755Z,-4.90
2024-01-16T02:57:08.897Z,-4.91
2024-01-16T02:59:37.004Z,-4.92
2024-01-16T03:02:05.307Z,-4.90
2024-01-16T03:04:33.350Z,-4.90
2024-01-16T03:07:01.298Z,-4.91
2024-01-16T03:09:29.290Z,-4.93
2024-01-16T03:11:57.359Z,-4.95
2024-01-16T03:14:25.458Z,-4.97
2024-01-16T03:16:53.447Z,-5.00
2024-01-16T03:19:21.514Z,-5.01
2024-01-16T03:21:50.394Z,-5.01
2024-01-16T03:24:18.475Z,-5.02
2024-01-16T03:26:46.536Z,-5.01
2024-01-16T03:29:14.542Z,-5.00
2024-01-16T03:31:42.654Z,-5.00
2024-01-16T03:34:11.877Z,-4.98
2024-01-16T03:36:40.048Z,-4.98
2024-01-16T03:39:08.032Z,-4.99
2024-01-16T03:41:36.057Z,-5.00
2024-01-16T03:44:04.259Z,-5.03
2024-01-16T03:46:32.328Z,-5.09
2024-01-16T03:49:00.524Z,-5.11
2024-01-16T03:51:28.567Z,-5.13
2024-01-16T03:53:56.922Z,-5.16
2024-01-16T03:56:25.113Z,-5.20
2024-01-16T03:58:53.336Z,-5.24
2024-01-16T04:01:34.213Z,-5.29
2024-01-16T04:04:03.079Z,-5.36
2024-01-16T04:06:32.627Z,-5.43
2024-01-16T04:09:00.670Z,-5.50
2024-01-16T04:11:28.926Z,-5.57
2024-01-16T04:13:57.948Z,-5.64
2024-01-16T04:16:26.870Z,-5.68
2024-01-16T04:18:55.850Z,-5.71
2024-01-16T04:21:24.266Z,-5.71
2024-01-16T04:23:52.328Z,-5.74
2024-01-16T04:26:20.487Z,-5.79
2024-01-16T04:28:49.103Z,-5.84
2024-01-16T04:31:19.384Z,-5.88
2024-01-16T04:33:47.550Z,-5.91
2024-01-16T04:36:18.941Z,-5.93
2024-01-16T04:38:47.310Z,-5.94
2024-01-16T04:41:20.970Z,-6.00
2024-01-16T04:43:51.139Z,-6.08
2024-01-16T04:46:19.497Z,-6.15
2024-01-16T04:48:47.801Z,-6.23
2024-01-16T04:51:15.987Z,-6.31
2024-01-16T04:53:44.930Z,-6.35
2024-01-16T04:56:13.455Z,-6.41
2024-01-16T04:58:41.430Z,-6.48
2024-01-16T05:01:09.495Z,-6.53
2024-01-16T05:03:37.736Z,-6.61
2024-01-16T05:06:17.191Z,-6.70
2024-01-16T05:08:45.433Z,-6.78
2024-01-16T05:11:13.471Z,-6.84
2024-01-16T05:13:41.975Z,-6.88
2024-01-16T05:16:14.435Z,-6.93
2024-01-16T05:18:45.759Z,-6.98
2024-01-16T05:21:14.490Z,-7.03
2024-01-16T05:23:42.834Z,-7.06
2024-01-16T05:26:14.380Z,-7.12
2024-01-16T05:28:42.718Z,-7.17
2024-01-16T05:31:10.934Z,-7.20
2024-01-16T05:33:42.639Z,-7.22
2024-01-16T05:36:12.683Z,-7.27
2024-01-16T05:38:42.937Z,-7.35
2024-01-16T05:41:11.153Z,-7.44
2024-01-16T05:43:42.495Z,-7.54
2024-01-16T05:46:12.066Z,-7.62
2024-01-16T05:48:40.181Z,-7.71
2024-01-16T05:51:13.645Z,-7.80
2024-01-16T05:53:43.430Z,-7.89
2024-01-16T05:56:12.182Z,-7.96
2024-01-16T05:58:44.203Z,-8.01
2024-01-16T06:01:14.696Z,-8.06
2024-01-16T06:03:46.630Z,-8.11
2024-01-16T06:06:14.978Z,-8.13
2024-01-16T06:08:46.385Z,-8.16
2024-01-16T06:11:15.289Z,-8.19
2024-01-16T06:13:46.613Z,-8.22
2024-01-16T06:16:15.007Z,-8.26
2024-01-16T06:18:44.016Z,-8.29
2024-01-16T06:21:13.408Z,-8.32
2024-01-16T06:23:41.695Z,-8.36
2024-01-16T06:26:10.235Z,-8.41
2024-01-16T06:28:39.434Z,-8.47
2024-01-16T06:31:07.927Z,-8.52
2024-01-16T06:33:36.891Z,-8.54
2024-01-16T06:36:08.685Z,-8.54
2024-01-16T06:38:40.646Z,-8.52
2024-01-16T06:41:08.884Z,-8.50
2024-01-16T06:43:37.530Z,-8.51
2024-01-16T06:46:07.009Z,-8.54
2024-01-16T06:48:38.433Z,-8.57
2024-01-16T06:51:06.786Z,-8.59
2024-01-16T06:53:36.408Z,-8.59
2024-01-16T06:56:10.423Z,-8.55
2024-01-16T06:58:38.618Z,-8.50
2024-01-16T07:01:06.725Z,-8.45
2024-01-16T07:03:35.140Z,-8.38
2024-01-16T07:06:04.181Z,-8.30
2024-01-16T07:08:32.675Z,-8.23
2024-01-16T07:11:00.866Z,-8.14
2024-01-16T07:13:29.085Z,-8.04
2024-01-16T07:15:57.229Z,-7.95
2024-01-16T07:18:25.445Z,-7.86
2024-01-16T07:20:53.780Z,-7.77
2024-01-16T07:23:22.001Z,-7.68
2024-01-16T07:25:50.033Z,-7.59
2024-01-16T07:28:18.064Z,-7.47
2024-01-16T07:30:46.234Z,-7.34
2024-01-16T07:33:14.594Z,-7.19
2024-01-16T07:35:45.486Z,-7.07
2024-01-16T07:38:13.819Z,-6.96
2024-01-16T07:40:42.008Z,-6.80
2024-01-16T07:43:10.330Z,-6.60
2024-01-16T07:45:38.677Z,-6.31
2024-01-16T07:48:07.286Z,-5.99
2024-01-16T07:50:35.988Z,-5.66
2024-01-16T07:53:04.324Z,-5.34
2024-01-16T07:55:32.542Z,-5.05
2024-01-16T07:58:00.798Z,-4.72
2024-01-16T08:00:28.925Z,-4.39
2024-01-16T08:02:57.124Z,-4.15
2024-01-16T08:05:29.281Z,-4.02
2024-01-16T08:07:58.976Z,-4.02
2024-01-16T08:10:27.303Z,-3.97
2024-01-16T08:12:55.598Z,-3.87
2024-01-16T08:15:23.641Z,-3.69
2024-01-16T08:17:51.758Z,-3.54
2024-01-16T08:20:19.962Z,-3.31
2024-01-16T08:22:48.058Z,-3.08
2024-01-16T08:25:16.289Z,-2.86
2024-01-16T08:27:45.019Z,-2.61
2024-01-16T08:30:14.092Z,-2.46
2024-01-16T08:32:42.670Z,-2.30
2024-01-16T08:35:10.890Z,-2.32
2024-01-16T08:37:38.981Z,-2.27
2024-01-16T08:40:08.013Z,-2.15
2024-01-16T08:42:36.280Z,-2.05
2024-01-16T08:45:04.926Z,-1.93
2024-01-16T08:47:33.049Z,-1.80
2024-01-16T08:50:01.155Z,-1.50
2024-01-16T08:52:29.254Z,-1.47
2024-01-16T08:54:57.345Z,-1.28
2024-01-16T08:57:27.153Z,-1.19
2024-01-16T08:59:56.944Z,-1.02
2024-01-16T09:02:30.353Z,-0.89
2024-01-16T09:05:00.072Z,-0.83
2024-01-16T09:07:28.877Z,-0.73
2024-01-16T09:09:57.102Z,-0.70
2024-01-16T09:12:25.498Z,-0.51
2024-01-16T09:14:53.673Z,-0.16
2024-01-16T09:17:22.273Z,0.09
2024-01-16T09:19:50.301Z,0.11
2024-01-16T09:22:19.379Z,-0.18
2024-01-16T09:24:47.480Z,0.03
2024-01-16T09:27:17.752Z,0.11
2024-01-16T09:29:45.940Z,0.30
2024-01-16T09:32:14.430Z,0.08
2024-01-16T09:34:42.646Z,-0.48
2024-01-16T09:37:10.821Z,-0.88
2024-01-16T09:39:39.275Z,-0.94
2024-01-16T09:42:07.377Z,-1.26
2024-01-16T09:44:36.067Z,-1.42
2024-01-16T09:47:06.301Z,-1.11
2024-01-16T09:49:34.490Z,-1.39
2024-01-16T09:52:03.667Z,-1.82
2024-01-16T09:54:31.764Z,-1.78
2024-01-16T09:57:00.959Z,-1.06
2024-01-16T09:59:32.225Z,-0.41
2024-01-16T10:02:02.375Z,-0.12
2024-01-16T10:04:31.494Z,0.35
2024-01-16T10:07:05.364Z,0.79
2024-01-16T10:09:33.739Z,0.98
2024-01-16T10:12:04.774Z,0.97
2024-01-16T10:14:34.401Z,0.56
2024-01-16T10:17:07.486Z,0.02
2024-01-16T10:19:49.253Z,-0.48
2024-01-16T10:22:26.916Z,-0.18
2024-01-16T10:25:10.258Z,-0.40
2024-01-16T10:27:44.761Z,-0.39
2024-01-16T10:30:14.000Z,-0.35
2024-01-16T10:32:43.935Z,-0.11
2024-01-16T10:35:19.260Z,-0.04
2024-01-16T10:37:47.405Z,-0.26
2024-01-16T10:40:17.948Z,-0.45
2024-01-16T10:42:47.655Z,-0.44
2024-01-16T10:45:20.355Z,-0.21
2024-01-16T10:47:48.952Z,-0.10
2024-01-16T10:50:17.316Z,-0.28
2024-01-16T10:52:52.950Z,-0.50
2024-01-16T10:55:23.580Z,-0.71
2024-01-16T10:57:53.182Z,-0.87
2024-01-16T11:00:23.006Z,-0.54
2024-01-16T11:03:01.663Z,-0.21
2024-01-16T11:05:33.137Z,0.08
2024-01-16T11:08:07.575Z,0.28
2024-01-16T11:10:37.610Z,0.29
2024-01-16T11:13:06.560Z,0.49
2024-01-16T11:15:35.027Z,0.41
2024-01-16T11:18:06.100Z,0.83
2024-01-16T11:20:55.509Z,1.29
2024-01-16T11:23:25.316Z,1.52
2024-01-16T11:25:53.557Z,1.47
2024-01-16T11:28:21.696Z,1.03
2024-01-16T11:30:49.786Z,0.64
2024-01-16T11:33:33.544Z,0.38
2024-01-16T11:36:03.040Z,0.46
2024-01-16T11:38:35.289Z,0.22
2024-01-16T11:41:03.458Z,0.00
2024-01-16T11:43:35.086Z,-0.25
2024-01-16T11:46:08.867Z,-0.23
2024-01-16T11:48:39.970Z,-0.15
2024-01-16T11:51:28.721Z,-0.34
2024-01-16T11:53:56.799Z,-1.05
2024-01-16T11:56:50.056Z,-1.32
2024-01-16T11:59:57.075Z,-1.24
2024-01-16T12:02:31.042Z,-0.92
2024-01-16T12:05:04.455Z,-0.81
2024-01-16T12:07:55.517Z,-0.64
2024-01-16T12:10:25.281Z,-0.33
2024-01-16T12:13:02.745Z,-0.12
2024-01-16T12:15:33.308Z,-0.12
2024-01-16T12:18:02.993Z,-0.21
2024-01-16T12:20:33.704Z,-0.02
2024-01-16T12:23:07.040Z,0.13
2024-01-16T12:26:00.929Z,0.20
2024-01-16T12:28:32.623Z,-0.08
2024-01-16T12:31:04.586Z,-0.27
2024-01-16T12:33:33.302Z,-0.70
2024-01-16T12:36:04.557Z,-1.10
2024-01-16T12:38:33.161Z,-1.08
2024-01-16T12:41:03.871Z,-1.18
2024-01-16T12:43:34.349Z,-1.41
2024-01-16T12:46:02.650Z,-1.10
2024-01-16T12:48:31.306Z,-0.89
2024-01-16T12:51:05.253Z,-0.74
2024-01-16T12:53:38.115Z,-0.71
2024-01-16T12:56:07.576Z,-0.79
2024-01-16T12:58:37.239Z,-0.83
2024-01-16T13:01:35.095Z,-0.98
2024-01-16T13:04:09.066Z,-0.96
2024-01-16T13:06:38.796Z,-1.05
2024-01-16T13:09:17.140Z,-1.05
2024-01-16T13:11:47.803Z,-1.24
2024-01-16T13:14:16.036Z,-1.44
2024-01-16T13:16:44.119Z,-1.57
2024-01-16T13:19:12.592Z,-1.75
2024-01-16T13:21:40.829Z,-1.82
2024-01-16T13:24:09.577Z,-1.88
2024-01-16T13:26:38.657Z,-1.75
2024-01-16T13:29:10.560Z,-1.65
2024-01-16T13:31:38.560Z,-1.58
2024-01-16T13:34:06.677Z,-1.60
2024-01-16T13:36:53.095Z,-1.55
2024-01-16T13:39:22.801Z,-1.47
2024-01-16T13:41:50.955Z,-1.10
2024-01-16T13:44:18.987Z,-0.72
2024-01-16T13:46:57.970Z,-0.60
2024-01-16T13:49:35.194Z,-0.73
2024-01-16T13:52:04.459Z,-0.93
2024-01-16T13:54:32.839Z,-1.37
2024-01-16T13:57:06.814Z,-1.50
2024-01-16T13:59:38.449Z,-1.55
2024-01-16T14:02:07.477Z,-1.77
2024-01-16T14:04:35.588Z,-1.89
2024-01-16T14:07:12.266Z,-2.05
2024-01-16T14:09:44.910Z,-2.15
2024-01-16T14:12:15.491Z,-2.21
2024-01-16T14:14:44.275Z,-2.38
2024-01-16T14:17:12.915Z,-2.58
2024-01-16T14:19:41.289Z,-2.78
2024-01-16T14:22:09.420Z,-2.97
2024-01-16T14:24:39.125Z,-3.15
2024-01-16T14:27:08.366Z,-3.30
2024-01-16T14:29:39.159Z,-3.46
2024-01-16T14:32:07.280Z,-3.60
2024-01-16T14:34:35.497Z,-3.72
2024-01-16T14:37:05.048Z,-3.82
2024-01-16T14:39:33.238Z,-3.93
2024-01-16T14:42:01.644Z,-4.02
2024-01-16T14:44:31.082Z,-4.14
2024-01-16T14:46:59.959Z,-4.28
2024-01-16T14:49:33.003Z,-4.42
2024-01-16T14:52:02.874Z,-4.55
2024-01-16T14:54:31.088Z,-4.68
2024-01-16T14:56:59.341Z,-4.80
2024-01-16T14:59:27.587Z,-4.92
2024-01-16T15:01:55.900Z,-5.02
2024-01-16T15:04:23.989Z,-5.13
2024-01-16T15:06:54.365Z,-5.21
2024-01-16T15:09:22.922Z,-5.30
2024-01-16T15:11:51.376Z,-5.40
2024-01-16T15:14:19.487Z,-5.51
2024-01-16T15:16:47.779Z,-5.64
2024-01-16T15:19:16.265Z,-5.76
2024-01-16T15:21:44.361Z,-5.85
2024-01-16T15:24:20.882Z,-5.95
2024-01-16T15:26:49.046Z,-6.08
2024-01-16T15:29:17.377Z,-6.20
2024-01-16T15:31:45.416Z,-6.29
2024-01-16T15:34:16.792Z,-6.33
2024-01-16T15:36:48.572Z,-6.36
2024-01-16T15:39:20.139Z,-6.37
2024-01-16T15:41:48.181Z,-6.40
2024-01-16T15:44:16.395Z,-6.42
2024-01-16T15:47:00.945Z,-6.47
2024-01-16T15:49:32.514Z,-6.58
2024-01-16T15:52:00.714Z,-6.67
2024-01-16T15:54:31.601Z,-6.74
2024-01-16T15:57:00.060Z,-6.83
2024-01-16T15:59:28.420Z,-6.93
2024-01-16T16:01:56.528Z,-7.04
2024-01-16T16:04:25.012Z,-7.16
2024-01-16T16:06:53.419Z,-7.29
2024-01-16T16:09:22.015Z,-7.39
2024-01-16T16:11:53.045Z,-7.46
2024-01-16T16:14:21.379Z,-7.54
2024-01-16T16:16:51.129Z,-7.63
2024-01-16T16:19:19.503Z,-7.71
2024-01-16T16:21:50.416Z,-7.79
2024-01-16T16:24:20.069Z,-7.85
2024-01-16T16:26:48.492Z,-7.88
2024-01-16T16:29:16.679Z,-7.90
2024-01-16T16:31:44.700Z,-7.93
2024-01-16T16:34:16.264Z,-7.94
2024-01-16T16:36:45.845Z,-7.97
2024-01-16T16:39:17.991Z,-7.98
2024-01-16T16:41:48.023Z,-7.99
2024-01-16T16:44:16.537Z,-7.98
2024-01-16T16:46:44.697Z,-7.99
2024-01-16T16:49:12.839Z,-8.03
2024-01-16T16:51:43.435Z,-8.09
2024-01-16T16:54:12.532Z,-8.15
2024-01-16T16:56:45.607Z,-8.18
2024-01-16T16:59:13.860Z,-8.21
2024-01-16T17:01:41.864Z,-8.27
2024-01-16T17:04:10.095Z,-8.34
2024-01-16T17:06:38.645Z,-8.41
2024-01-16T17:09:08.244Z,-8.47
2024-01-16T17:11:36.566Z,-8.51
2024-01-16T17:14:05.139Z,-8.54
2024-01-16T17:16:33.442Z,-8.56
2024-01-16T17:19:01.766Z,-8.55
2024-01-16T17:21:30.195Z,-8.55
2024-01-16T17:24:01.233Z,-8.55
2024-01-16T17:26:31.047Z,-8.58
2024-01-16T17:29:01.820Z,-8.61
2024-01-16T17:31:30.596Z,-8.64
2024-01-16T17:33:59.159Z,-8.67
2024-01-16T17:36:30.129Z,-8.69
2024-01-16T17:39:01.439Z,-8.67
2024-01-16T17:41:31.168Z,-8.64
2024-01-16T17:43:59.765Z,-8.64
2024-01-16T17:46:28.209Z,-8.64
2024-01-16T17:48:57.894Z,-8.65
2024-01-16T17:51:26.738Z,-8.66
2024-01-16T17:53:55.041Z,-8.67
2024-01-16T17:56:25.313Z,-8.69
2024-01-16T17:58:55.491Z,-8.68
2024-01-16T18:01:23.488Z,-8.66
2024-01-16T18:03:53.022Z,-8.63
2024-01-16T18:06:23.291Z,-8.58
2024-01-16T18:08:52.933Z,-8.56
2024-01-16T18:11:21.472Z,-8.55
2024-01-16T18:13:49.687Z,-8.53
2024-01-16T18:16:18.769Z,-8.50
2024-01-16T18:18:47.294Z,-8.49
2024-01-16T18:21:15.914Z,-8.48
2024-01-16T18:23:48.442Z,-8.47
2024-01-16T18:26:16.617Z,-8.43
2024-01-16T18:28:44.831Z,-8.39
2024-01-16T18:31:19.854Z,-8.36
2024-01-16T18:33:50.601Z,-8.31
2024-01-16T18:36:22.436Z,-8.28
2024-01-16T18:38:51.480Z,-8.26
2024-01-16T18:41:20.014Z,-8.24
2024-01-16T18:43:53.893Z,-8.22
2024-01-16T18:46:24.292Z,-8.18
2024-01-16T18:48:52.693Z,-8.13
2024-01-16T18:51:22.783Z,-8.08
2024-01-16T18:53:51.044Z,-8.03
2024-01-16T18:56:19.397Z,-7.97
2024-01-16T18:58:47.494Z,-7.92
2024-01-16T19:01:15.680Z,-7.86
2024-01-16T19:03:43.944Z,-7.78
2024-01-16T19:06:15.844Z,-7.71
2024-01-16T19:08:44.702Z,-7.64
2024-01-16T19:11:13.369Z,-7.58
2024-01-16T19:13:42.843Z,-7.52
2024-01-16T19:16:12.679Z,-7.47
2024-01-16T19:18:44.116Z,-7.42
2024-01-16T19:21:13.234Z,-7.37
2024-01-16T19:23:41.231Z,-7.31
2024-01-16T19:26:09.736Z,-7.25
2024-01-16T19:28:37.869Z,-7.19
2024-01-16T19:31:06.403Z,-7.14
2024-01-16T19:33:34.827Z,-7.11
2024-01-16T19:36:05.234Z,-7.09
2024-01-16T19:38:37.131Z,-7.08
2024-01-16T19:41:06.702Z,-7.06
2024-01-16T19:43:38.634Z,-7.04
2024-01-16T19:46:07.049Z,-7.03
2024-01-16T19:48:41.057Z,-7.01
2024-01-16T19:51:12.796Z,-6.97
2024-01-16T19:53:41.598Z,-6.91
2024-01-16T19:56:10.280Z,-6.85
2024-01-16T19:58:39.063Z,-6.79
2024-01-16T20:01:10.428Z,-6.71
2024-01-16T20:03:42.324Z,-6.63
2024-01-16T20:06:13.426Z,-6.55
2024-01-16T20:08:41.674Z,-6.48
2024-01-16T20:11:09.732Z,-6.42
2024-01-16T20:13:38.010Z,-6.36
2024-01-16T20:16:10.557Z,-6.29
2024-01-16T20:18:46.097Z,-6.22
2024-01-16T20:21:14.474Z,-6.14
2024-01-16T20:23:42.709Z,-6.08
2024-01-16T20:26:10.709Z,-6.01
2024-01-16T20:28:38.787Z,-5.93
2024-01-16T20:31:08.492Z,-5.84
2024-01-16T20:33:38.200Z,-5.77
2024-01-16T20:36:06.585Z,-5.71
2024-01-16T20:38:34.807Z,-5.66
2024-01-16T20:41:03.256Z,-5.58
2024-01-16T20:43:31.425Z,-5.58
2024-01-16T20:46:02.253Z,-5.54
2024-01-16T20:48:30.816Z,-5.50
2024-01-16T20:50:59.868Z,-5.46
2024-01-16T20:53:29.513Z,-5.44
2024-01-16T20:55:57.828Z,-5.44
2024-01-16T20:58:25.945Z,-5.38
2024-01-16T21:00:54.460Z,-5.34
2024-01-16T21:03:26.092Z,-5.30
2024-01-16T21:05:57.080Z,-5.28
2024-01-16T21:08:25.403Z,-5.23
2024-01-16T21:10:53.638Z,-5.21
2024-01-16T21:13:24.578Z,-5.18
2024-01-16T21:15:53.188Z,-5.12
2024-01-16T21:18:21.591Z,-5.10
2024-01-16T21:20:50.707Z,-5.08
2024-01-16T21:23:18.865Z,-5.05
2024-01-16T21:25:47.033Z,-5.06
2024-01-16T21:28:15.366Z,-5.02
2024-01-16T21:30:43.852Z,-5.02
2024-01-16T21:33:15.129Z,-5.04
2024-01-16T21:35:43.752Z,-5.01
2024-01-16T21:38:12.924Z,-4.99
2024-01-16T21:40:41.347Z,-5.02
2024-01-16T21:43:09.754Z,-4.99
2024-01-16T21:45:37.972Z,-4.96
2024-01-16T21:48:06.744Z,-4.95
2024-01-16T21:50:38.425Z,-4.97
2024-01-16T21:53:07.302Z,-5.01
2024-01-16T21:55:35.392Z,-4.99
2024-01-16T21:58:04.044Z,-4.99
2024-01-16T22:00:35.069Z,-5.00
2024-01-16T22:03:05.783Z,-4.97
2024-01-16T22:05:36.222Z,-4.97
2024-01-16T22:08:08.386Z,-4.96
2024-01-16T22:10:40.504Z,-4.96
2024-01-16T22:13:15.301Z,-4.95
2024-01-16T22:15:47.463Z,-4.94
2024-01-16T22:18:18.836Z,-4.89
2024-01-16T22:20:47.527Z,-4.87
2024-01-16T22:23:16.435Z,-4.86
2024-01-16T22:25:44.530Z,-4.87
2024-01-16T22:28:13.907Z,-4.84
2024-01-16T22:30:42.298Z,-4.80
2024-01-16T22:33:10.566Z,-4.82
2024-01-16T22:35:39.514Z,-4.83
2024-01-16T22:38:07.519Z,-4.80
2024-01-16T22:40:37.862Z,-4.80
2024-01-16T22:43:06.912Z,-4.78
2024-01-16T22:45:35.014Z,-4.75
2024-01-16T22:48:06.680Z,-4.76
2024-01-16T22:50:35.661Z,-4.74
2024-01-16T22:53:03.990Z,-4.72
2024-01-16T22:55:32.038Z,-4.70
2024-01-16T22:58:06.257Z,-4.69
2024-01-16T23:00:40.380Z,-4.65
2024-01-16T23:03:11.131Z,-4.64
2024-01-16T23:05:45.330Z,-4.64
2024-01-16T23:08:14.849Z,-4.61
2024-01-16T23:10:43.154Z,-4.60
2024-01-16T23:13:11.237Z,-4.59
2024-01-16T23:15:39.539Z,-4.56
2024-01-16T23:18:07.941Z,-4.55
2024-01-16T23:20:36.031Z,-4.53
2024-01-16T23:26:27.300Z,-4.51
2024-01-16T23:28:56.781Z,-4.49
2024-01-16T23:31:24.766Z,-4.48
2024-01-16T23:33:52.954Z,-4.46
2024-01-16T23:36:21.023Z,-4.46
2024-01-16T23:38:49.023Z,-4.43
2024-01-16T23:41:19.329Z,-4.42
2024-01-16T23:43:47.329Z,-4.42
2024-01-16T23:46:15.338Z,-4.41
2024-01-16T23:48:45.623Z,-4.42
2024-01-16T23:51:14.852Z,-4.43
2024-01-16T23:53:42.920Z,-4.44
2024-01-16T23:56:12.649Z,-4.44
2024-01-16T23:58:40.766Z,-4.42
